Time;durP1;ratioP1;P1;durP2;ratioP2;P2;SDS_P1;SDS_P2;PMS_P1;PMS_P2;Temp;Humidity;BMP_temperature;BMP_pressure;BME280_temperature;BME280_humidity;BME280_pressure;Samples;Min_cycle;Max_cycle;Signal;HPM_P1;HPM_P2
2023/12/12 00:02:48;;;;;;;4.47;4.30;;;6.90;82.70;;;;;;6254448;28;20256;-81
2023/12/12 00:05:51;;;;;;;4.53;4.43;;;6.90;83.00;;;;;;6247130;28;20252;-79
2023/12/12 00:08:55;;;;;;;4.63;4.53;;;6.80;82.80;;;;;;6259209;28;20240;-82
2023/12/12 00:11:58;;;;;;;4.60;4.47;;;6.80;82.70;;;;;;6251479;28;20242;-80
2023/12/12 00:15:02;;;;;;;4.47;4.37;;;6.80;82.60;;;;;;6236318;28;20876;-82
2023/12/12 00:18:06;;;;;;;4.70;4.60;;;6.80;82.50;;;;;;6255085;28;20848;-84
2023/12/12 00:21:10;;;;;;;4.60;4.50;;;6.80;82.50;;;;;;6242787;28;20243;-80
2023/12/12 00:24:13;;;;;;;4.83;4.73;;;6.90;82.40;;;;;;6251249;28;20850;-83
2023/12/12 00:27:16;;;;;;;4.80;4.50;;;7.00;82.10;;;;;;6258654;28;20227;-76
2023/12/12 00:30:20;;;;;;;4.70;4.60;;;6.90;82.10;;;;;;6255767;28;20633;-83
2023/12/12 00:33:23;;;;;;;4.70;4.50;;;6.80;82.30;;;;;;6245813;28;20409;-83
2023/12/12 00:36:26;;;;;;;4.97;4.87;;;6.80;82.50;;;;;;6253550;28;20643;-79
2023/12/12 00:39:30;;;;;;;5.30;5.10;;;6.80;82.60;;;;;;6264705;28;20231;-81
2023/12/12 00:42:32;;;;;;;5.10;4.90;;;6.80;82.30;;;;;;6245165;28;20238;-78
2023/12/12 00:45:37;;;;;;;5.37;5.07;;;6.80;82.20;;;;;;6241904;28;20246;-82
2023/12/12 00:48:40;;;;;;;5.30;5.10;;;6.80;82.20;;;;;;6247246;28;20243;-79
2023/12/12 00:51:44;;;;;;;5.37;4.97;;;6.70;82.10;;;;;;6256538;28;20234;-79
2023/12/12 00:54:48;;;;;;;5.07;4.87;;;6.70;82.00;;;;;;6252187;28;20268;-83
2023/12/12 00:57:51;;;;;;;5.60;5.20;;;6.70;82.00;;;;;;6253017;28;20233;-81
2023/12/12 01:00:56;;;;;;;4.90;4.80;;;6.70;82.10;;;;;;6254799;28;20241;-82
2023/12/12 01:03:59;;;;;;;5.30;5.10;;;6.70;82.20;;;;;;6235495;28;20329;-82
2023/12/12 01:07:02;;;;;;;4.63;4.53;;;6.60;82.60;;;;;;6223963;28;20238;-81
2023/12/12 01:10:06;;;;;;;5.40;5.20;;;6.60;82.60;;;;;;6217241;28;20700;-81
2023/12/12 01:13:09;;;;;;;5.53;5.37;;;6.60;82.60;;;;;;6234258;28;20250;-81
2023/12/12 01:16:14;;;;;;;6.03;5.83;;;6.60;82.60;;;;;;6239433;28;20646;-81
2023/12/12 01:19:17;;;;;;;5.83;5.53;;;6.60;82.80;;;;;;6232138;28;20983;-81
2023/12/12 01:22:20;;;;;;;6.10;5.87;;;6.60;82.60;;;;;;6243381;28;20276;-83
2023/12/12 01:25:23;;;;;;;6.57;6.20;;;6.60;82.60;;;;;;6232458;28;20236;-79
2023/12/12 01:28:26;;;;;;;6.67;6.27;;;6.60;82.60;;;;;;6230094;28;20226;-82
2023/12/12 01:31:31;;;;;;;6.43;6.13;;;6.60;82.80;;;;;;6227237;28;20246;-82
2023/12/12 01:34:35;;;;;;;5.93;5.63;;;6.60;82.80;;;;;;6235249;28;20234;-80
2023/12/12 01:37:38;;;;;;;5.90;5.70;;;6.60;82.60;;;;;;6217181;28;20227;-80
2023/12/12 01:40:41;;;;;;;6.17;5.87;;;6.60;82.70;;;;;;6229594;28;20243;-80
2023/12/12 01:43:44;;;;;;;5.80;5.50;;;6.50;82.80;;;;;;6228918;28;20384;-83
2023/12/12 01:46:51;;;;;;;6.20;5.90;;;6.50;82.90;;;;;;6229945;28;20258;-81
2023/12/12 01:49:54;;;;;;;6.17;5.77;;;6.50;82.90;;;;;;6225404;28;20674;-81
2023/12/12 01:52:58;;;;;;;6.00;5.70;;;6.50;83.00;;;;;;6231472;28;20798;-82
2023/12/12 01:56:02;;;;;;;6.23;5.93;;;6.50;83.10;;;;;;6233498;28;20850;-81
2023/12/12 01:59:06;;;;;;;6.17;5.87;;;6.50;83.20;;;;;;6229090;28;20879;-83
2023/12/12 02:02:11;;;;;;;5.77;5.57;;;6.50;83.10;;;;;;6231746;28;20242;-81
2023/12/12 02:05:15;;;;;;;6.27;5.80;;;6.50;82.90;;;;;;6228612;28;20250;-81
2023/12/12 02:08:18;;;;;;;6.00;5.70;;;6.60;82.90;;;;;;6214732;28;20374;-80
2023/12/12 02:11:22;;;;;;;6.13;5.73;;;6.60;82.60;;;;;;6221505;28;20239;-81
2023/12/12 02:14:25;;;;;;;5.33;5.10;;;6.60;82.50;;;;;;6217844;28;20231;-80
2023/12/12 02:17:30;;;;;;;6.23;5.87;;;6.60;82.30;;;;;;6218656;28;20285;-79
2023/12/12 02:20:33;;;;;;;5.83;5.53;;;6.60;82.20;;;;;;6221189;28;20269;-80
2023/12/12 02:23:38;;;;;;;5.13;4.93;;;6.50;82.20;;;;;;6226851;28;20286;-81
2023/12/12 02:26:41;;;;;;;5.37;5.07;;;6.50;82.00;;;;;;6230346;28;20238;-82
2023/12/12 02:29:44;;;;;;;4.93;4.83;;;6.60;81.80;;;;;;6229255;28;20227;-80
2023/12/12 02:32:47;;;;;;;5.20;5.03;;;6.50;81.90;;;;;;6213214;28;20939;-82
2023/12/12 02:35:50;;;;;;;5.20;5.10;;;6.50;81.60;;;;;;6222558;28;20321;-81
2023/12/12 02:38:55;;;;;;;4.80;4.70;;;6.50;81.60;;;;;;6229326;28;20653;-81
2023/12/12 02:41:58;;;;;;;5.70;5.50;;;6.50;81.50;;;;;;6228049;28;20373;-80
2023/12/12 02:45:01;;;;;;;5.23;5.03;;;6.50;81.40;;;;;;6221509;28;20250;-79
2023/12/12 02:48:05;;;;;;;5.83;5.40;;;6.50;81.30;;;;;;6233095;28;20314;-82
2023/12/12 02:51:08;;;;;;;5.73;5.43;;;6.50;81.30;;;;;;6220378;28;20235;-81
2023/12/12 02:54:13;;;;;;;6.30;6.00;;;6.40;81.30;;;;;;6235350;28;20273;-81
2023/12/12 02:57:16;;;;;;;6.83;6.43;;;6.50;81.50;;;;;;6217215;28;20405;-81
2023/12/12 03:00:19;;;;;;;6.17;5.87;;;6.50;81.40;;;;;;6229844;28;20245;-82
2023/12/12 03:03:22;;;;;;;6.93;6.50;;;6.50;81.70;;;;;;6213086;28;20817;-81
2023/12/12 03:06:26;;;;;;;6.90;6.50;;;6.40;81.90;;;;;;6220920;28;20227;-81
2023/12/12 03:09:30;;;;;;;7.00;6.50;;;6.50;81.90;;;;;;6224391;28;20312;-83
2023/12/12 03:12:33;;;;;;;8.03;7.53;;;6.50;82.20;;;;;;6220975;28;20234;-82
2023/12/12 03:15:36;;;;;;;7.80;7.20;;;6.50;82.40;;;;;;6219428;28;20737;-82
2023/12/12 03:18:39;;;;;;;8.83;8.13;;;6.50;82.60;;;;;;6232478;28;20247;-82
2023/12/12 03:21:43;;;;;;;8.07;7.57;;;6.50;82.90;;;;;;6226288;28;20242;-83
2023/12/12 03:24:47;;;;;;;9.90;9.20;;;6.50;83.00;;;;;;6216542;28;20817;-83
2023/12/12 03:27:50;;;;;;;9.00;8.27;;;6.60;83.10;;;;;;6228867;28;20584;-79
2023/12/12 03:30:53;;;;;;;10.27;9.37;;;6.50;83.40;;;;;;6231268;28;20370;-81
2023/12/12 03:33:57;;;;;;;9.80;9.00;;;6.50;83.70;;;;;;6239891;28;20749;-80
2023/12/12 03:37:00;;;;;;;10.13;9.37;;;6.50;84.00;;;;;;6235197;28;20255;-82
2023/12/12 03:40:06;;;;;;;10.63;9.70;;;6.50;84.10;;;;;;6235509;28;20247;-81
2023/12/12 03:43:09;;;;;;;10.53;9.73;;;6.40;84.60;;;;;;6239035;28;20268;-81
2023/12/12 03:46:13;;;;;;;9.87;9.00;;;6.40;84.80;;;;;;6219818;28;20729;-79
2023/12/12 03:49:16;;;;;;;10.57;9.67;;;6.40;84.90;;;;;;6223779;28;20238;-80
2023/12/12 03:52:19;;;;;;;10.00;9.30;;;6.40;85.00;;;;;;6226867;28;20715;-81
2023/12/12 03:55:24;;;;;;;10.50;9.70;;;6.40;85.30;;;;;;6227179;28;20330;-81
2023/12/12 03:58:29;;;;;;;11.50;10.47;;;6.40;85.10;;;;;;6238356;28;20349;-81
2023/12/12 04:01:32;;;;;;;9.73;9.03;;;6.40;85.10;;;;;;6223518;28;20249;-81
2023/12/12 04:04:36;;;;;;;10.50;9.70;;;6.40;85.30;;;;;;6222606;28;20226;-81
2023/12/12 04:07:40;;;;;;;9.63;8.83;;;6.40;85.20;;;;;;6229079;28;20226;-81
2023/12/12 04:10:44;;;;;;;9.73;8.83;;;6.40;85.40;;;;;;6233309;28;20639;-84
2023/12/12 04:13:47;;;;;;;9.53;8.13;;;6.40;85.40;;;;;;6227162;28;20239;-81
2023/12/12 04:16:50;;;;;;;8.47;7.77;;;6.40;85.40;;;;;;6224161;28;20774;-83
2023/12/12 04:19:53;;;;;;;6.13;5.83;;;6.40;85.60;;;;;;6223819;28;20317;-80
2023/12/12 04:22:57;;;;;;;5.73;5.47;;;6.40;85.80;;;;;;6225594;28;20314;-81
2023/12/12 04:26:01;;;;;;;5.40;5.20;;;6.50;85.80;;;;;;6228976;28;20259;-80
2023/12/12 04:29:05;;;;;;;4.53;4.33;;;6.40;85.70;;;;;;6226550;28;20239;-82
2023/12/12 04:32:09;;;;;;;4.10;4.00;;;6.50;85.60;;;;;;6223292;28;20246;-84
2023/12/12 04:35:13;;;;;;;4.07;3.97;;;6.50;85.70;;;;;;6239170;28;20231;-81
2023/12/12 04:38:16;;;;;;;4.17;3.90;;;6.50;85.70;;;;;;6220476;28;20239;-85
2023/12/12 04:41:20;;;;;;;4.50;4.20;;;6.40;85.90;;;;;;6220376;28;20247;-80
2023/12/12 04:44:24;;;;;;;4.87;4.67;;;6.40;85.80;;;;;;6223885;28;20801;-83
2023/12/12 04:47:27;;;;;;;5.00;4.50;;;6.40;85.90;;;;;;6222984;28;20267;-83
2023/12/12 04:50:31;;;;;;;5.90;5.50;;;6.40;86.00;;;;;;6237385;28;20230;-79
2023/12/12 04:53:34;;;;;;;5.83;5.53;;;6.30;86.20;;;;;;6238744;28;20350;-84
2023/12/12 04:56:38;;;;;;;5.53;5.13;;;6.40;86.00;;;;;;6232247;28;20405;-84
2023/12/12 04:59:41;;;;;;;6.77;6.23;;;6.30;85.90;;;;;;6225149;28;20234;-82
2023/12/12 05:02:45;;;;;;;6.37;5.87;;;6.30;86.10;;;;;;6234191;28;20234;-82
2023/12/12 05:05:49;;;;;;;6.53;5.93;;;6.30;86.00;;;;;;6225110;28;20246;-85
2023/12/12 05:08:52;;;;;;;6.47;6.00;;;6.30;86.00;;;;;;6219997;28;20886;-84
2023/12/12 05:11:57;;;;;;;6.77;6.30;;;6.20;86.10;;;;;;6228928;28;20234;-82
2023/12/12 05:15:00;;;;;;;6.50;6.00;;;6.20;86.20;;;;;;6234233;28;20243;-84
2023/12/12 05:18:03;;;;;;;7.10;6.33;;;6.20;85.90;;;;;;6231432;28;20243;-81
2023/12/12 05:21:06;;;;;;;6.47;6.07;;;6.30;85.90;;;;;;6227862;28;20634;-79
2023/12/12 05:24:10;;;;;;;9.97;6.20;;;6.30;86.00;;;;;;6245468;28;20729;-81
2023/12/12 05:27:14;;;;;;;6.97;6.37;;;6.20;85.90;;;;;;6229074;28;20242;-80
2023/12/12 05:30:17;;;;;;;6.40;6.00;;;6.20;85.90;;;;;;6245757;28;20239;-82
2023/12/12 05:33:20;;;;;;;5.97;5.50;;;6.20;86.00;;;;;;6232022;28;20235;-83
2023/12/12 05:36:24;;;;;;;7.07;6.57;;;6.10;86.10;;;;;;6228757;28;20951;-85
2023/12/12 05:39:27;;;;;;;7.20;6.20;;;6.10;86.30;;;;;;6220525;28;20245;-83
2023/12/12 05:42:31;;;;;;;6.70;6.10;;;6.10;86.40;;;;;;6239030;28;20259;-83
2023/12/12 05:45:35;;;;;;;5.77;5.37;;;6.10;86.50;;;;;;6239762;28;20249;-84
2023/12/12 05:48:38;;;;;;;6.40;6.00;;;6.10;86.50;;;;;;6251540;28;20234;-77
2023/12/12 05:51:41;;;;;;;6.87;6.47;;;6.10;86.50;;;;;;6268932;28;20378;-81
2023/12/12 05:54:46;;;;;;;7.20;6.60;;;6.10;86.40;;;;;;6247659;28;20317;-83
2023/12/12 05:57:50;;;;;;;7.83;6.30;;;6.10;86.40;;;;;;6217944;28;20334;-83
2023/12/12 06:00:53;;;;;;;6.60;6.10;;;6.20;86.40;;;;;;6234045;28;20239;-80
2023/12/12 06:03:57;;;;;;;7.27;6.60;;;6.10;86.20;;;;;;6214365;28;20231;-83
2023/12/12 06:07:01;;;;;;;7.10;6.40;;;6.10;86.40;;;;;;6215735;28;20223;-78
2023/12/12 06:10:08;;;;;;;7.90;7.37;;;6.10;86.40;;;;;;6249688;28;20821;-80
2023/12/12 06:13:13;;;;;;;6.90;6.37;;;6.10;86.30;;;;;;6243089;28;20235;-83
2023/12/12 06:16:17;;;;;;;6.63;6.00;;;6.10;85.80;;;;;;6223685;28;20287;-83
2023/12/12 06:19:22;;;;;;;7.30;6.70;;;6.10;85.60;;;;;;6220273;28;20244;-83
2023/12/12 06:22:25;;;;;;;6.87;6.10;;;6.10;85.70;;;;;;6233972;28;20259;-83
2023/12/12 06:25:28;;;;;;;8.13;6.10;;;6.20;85.70;;;;;;6230012;28;20263;-82
2023/12/12 06:28:33;;;;;;;7.20;6.63;;;6.20;85.40;;;;;;6232234;28;20303;-80
2023/12/12 06:31:37;;;;;;;7.30;6.60;;;6.20;85.40;;;;;;6248767;28;20242;-80
2023/12/12 06:34:40;;;;;;;9.03;7.03;;;6.20;85.30;;;;;;6248871;28;20234;-78
2023/12/12 06:37:43;;;;;;;7.50;6.83;;;6.20;85.10;;;;;;6245827;28;20248;-78
2023/12/12 06:40:46;;;;;;;8.03;6.50;;;6.20;84.80;;;;;;6234534;28;20239;-85
2023/12/12 06:43:51;;;;;;;8.70;7.17;;;6.20;84.70;;;;;;6225587;28;20243;-82
2023/12/12 06:46:54;;;;;;;8.10;6.93;;;6.20;84.60;;;;;;6231037;28;20239;-83
2023/12/12 06:49:57;;;;;;;7.73;7.10;;;6.20;84.70;;;;;;6237011;28;20241;-81
2023/12/12 06:53:01;;;;;;;6.93;6.30;;;6.10;84.80;;;;;;6241970;28;20237;-81
2023/12/12 06:56:05;;;;;;;8.93;7.73;;;6.10;84.90;;;;;;6245704;28;20238;-83
2023/12/12 06:59:10;;;;;;;7.13;6.73;;;6.10;84.80;;;;;;6219525;28;20241;-83
2023/12/12 07:02:14;;;;;;;7.53;6.83;;;6.10;85.10;;;;;;6216438;28;20330;-84
2023/12/12 07:05:17;;;;;;;8.40;7.60;;;6.10;85.10;;;;;;6229132;28;20274;-82
2023/12/12 07:08:21;;;;;;;8.33;7.70;;;6.10;85.30;;;;;;6227439;28;20238;-83
2023/12/12 07:11:24;;;;;;;7.97;7.37;;;6.00;85.50;;;;;;6250471;28;20298;-78
2023/12/12 07:14:29;;;;;;;9.00;8.10;;;6.00;85.50;;;;;;6242382;28;20258;-77
2023/12/12 07:17:32;;;;;;;8.77;7.97;;;6.00;85.70;;;;;;6258337;28;20257;-79
2023/12/12 07:20:35;;;;;;;9.23;8.43;;;6.00;86.00;;;;;;6265303;28;20234;-78
2023/12/12 07:23:38;;;;;;;11.37;8.33;;;6.00;86.10;;;;;;6263731;28;20242;-77
2023/12/12 07:26:44;;;;;;;9.87;8.87;;;5.90;86.40;;;;;;6243752;28;20229;-84
2023/12/12 07:29:49;;;;;;;12.47;9.37;;;5.90;86.60;;;;;;6237970;28;20484;-83
2023/12/12 07:32:52;;;;;;;12.47;9.40;;;5.90;86.60;;;;;;6238630;28;20827;-85
2023/12/12 07:35:55;;;;;;;10.70;9.60;;;5.90;86.50;;;;;;6221799;28;20250;-84
2023/12/12 07:39:00;;;;;;;15.47;9.70;;;6.00;86.30;;;;;;6223952;28;20243;-84
2023/12/12 07:42:03;;;;;;;10.93;9.83;;;5.90;86.20;;;;;;6229175;28;20242;-81
2023/12/12 07:45:10;;;;;;;10.97;9.87;;;6.00;86.20;;;;;;6226952;28;20231;-83
2023/12/12 07:48:13;;;;;;;10.57;9.60;;;6.00;86.00;;;;;;6236851;28;20247;-82
2023/12/12 07:51:16;;;;;;;11.33;9.77;;;6.00;86.10;;;;;;6234462;28;20306;-84
2023/12/12 07:54:20;;;;;;;9.53;8.77;;;6.10;86.10;;;;;;6242149;28;20716;-82
2023/12/12 07:57:23;;;;;;;12.80;9.60;;;6.10;85.80;;;;;;6234850;28;20246;-78
2023/12/12 08:00:28;;;;;;;11.30;10.20;;;6.10;85.60;;;;;;6236261;28;20238;-81
2023/12/12 08:03:31;;;;;;;11.13;9.83;;;6.10;85.70;;;;;;6249280;28;20277;-80
2023/12/12 08:06:34;;;;;;;11.97;9.80;;;6.10;85.70;;;;;;6233991;28;20227;-80
2023/12/12 08:09:37;;;;;;;10.77;9.83;;;6.10;85.50;;;;;;6245936;28;20690;-82
2023/12/12 08:12:40;;;;;;;15.43;10.40;;;6.10;85.50;;;;;;6238503;28;20230;-79
2023/12/12 08:15:45;;;;;;;11.33;10.17;;;6.10;85.50;;;;;;6236818;28;20235;-76
2023/12/12 08:18:48;;;;;;;18.67;10.67;;;6.10;85.20;;;;;;6242314;28;20289;-85
2023/12/12 08:21:51;;;;;;;16.30;10.20;;;6.10;85.20;;;;;;6241472;28;20255;-84
2023/12/12 08:24:54;;;;;;;10.97;9.80;;;6.10;85.30;;;;;;6232837;28;20234;-84
2023/12/12 08:27:58;;;;;;;11.70;9.50;;;6.10;85.30;;;;;;6235618;28;20247;-76
2023/12/12 08:31:03;;;;;;;15.53;10.03;;;6.10;85.20;;;;;;6227432;28;20242;-81
2023/12/12 08:34:07;;;;;;;11.73;9.63;;;6.10;85.00;;;;;;6228560;28;20735;-83
2023/12/12 08:37:10;;;;;;;17.23;10.30;;;6.00;85.00;;;;;;6224038;28;20282;-81
2023/12/12 08:40:13;;;;;;;12.37;9.60;;;6.10;85.00;;;;;;6230665;28;20246;-81
2023/12/12 08:43:17;;;;;;;13.80;10.63;;;6.00;84.90;;;;;;6221885;28;20298;-84
2023/12/12 08:46:26;;;;;;;12.03;9.93;;;6.00;85.10;;;;;;6221855;28;20246;-87
2023/12/12 08:49:30;;;;;;;13.23;9.87;;;6.00;85.20;;;;;;6233308;28;20239;-82
2023/12/12 08:52:33;;;;;;;16.33;9.87;;;6.00;84.90;;;;;;6231514;28;20238;-82
2023/12/12 08:55:40;;;;;;;10.03;9.03;;;6.00;85.10;;;;;;6238582;28;20877;-81
2023/12/12 08:58:44;;;;;;;11.97;9.53;;;6.00;84.90;;;;;;6239104;28;20258;-82
2023/12/12 09:01:52;;;;;;;10.80;8.80;;;6.00;85.00;;;;;;6241933;28;20314;-82
2023/12/12 09:04:55;;;;;;;13.00;8.40;;;6.00;84.60;;;;;;6229569;28;20246;-75
2023/12/12 09:07:58;;;;;;;9.60;8.33;;;6.00;84.70;;;;;;6234007;28;20240;-81
2023/12/12 09:11:02;;;;;;;10.03;8.47;;;6.10;84.60;;;;;;6233868;28;20249;-80
2023/12/12 09:14:05;;;;;;;12.87;8.53;;;6.10;84.50;;;;;;6248184;28;20281;-78
2023/12/12 09:17:10;;;;;;;13.40;9.37;;;6.00;84.20;;;;;;6278335;28;20292;-79
2023/12/12 09:20:13;;;;;;;9.77;8.30;;;6.00;84.20;;;;;;6275022;28;20243;-78
2023/12/12 09:23:17;;;;;;;12.33;8.40;;;6.00;84.20;;;;;;6247890;28;20257;-81
2023/12/12 09:26:21;;;;;;;11.20;7.93;;;6.00;84.50;;;;;;6256632;28;20306;-80
2023/12/12 09:29:25;;;;;;;11.63;7.70;;;6.00;84.20;;;;;;6273037;28;20292;-82
2023/12/12 09:32:29;;;;;;;16.07;8.27;;;6.10;84.00;;;;;;6260209;28;20250;-83
2023/12/12 09:35:35;;;;;;;9.30;8.13;;;6.10;83.60;;;;;;6271434;28;20239;-80
2023/12/12 09:38:38;;;;;;;7.33;6.80;;;6.10;83.50;;;;;;6283337;28;20264;-76
2023/12/12 09:41:45;;;;;;;10.10;7.40;;;6.10;83.50;;;;;;6270494;28;20230;-82
2023/12/12 09:44:56;;;;;;;11.23;7.37;;;6.20;83.20;;;;;;6269786;28;20330;-77
2023/12/12 09:48:01;;;;;;;7.80;7.03;;;6.20;82.90;;;;;;6268204;28;20264;-81
2023/12/12 09:51:06;;;;;;;9.90;7.03;;;6.10;82.90;;;;;;6240490;28;20239;-84
2023/12/12 09:54:11;;;;;;;10.70;6.73;;;6.10;83.20;;;;;;6235187;28;20886;-81
2023/12/12 09:57:16;;;;;;;7.73;6.70;;;6.20;83.10;;;;;;6248046;28;20242;-82
2023/12/12 10:00:21;;;;;;;7.43;6.87;;;6.10;83.10;;;;;;6250460;28;20242;-82
2023/12/12 10:03:27;;;;;;;7.80;7.07;;;6.10;83.30;;;;;;6233182;28;20274;-83
2023/12/12 10:06:31;;;;;;;8.57;7.23;;;6.10;83.30;;;;;;6232609;28;20682;-82
2023/12/12 10:09:34;;;;;;;9.80;7.17;;;6.10;83.20;;;;;;6227432;28;20983;-85
2023/12/12 10:12:40;;;;;;;8.70;7.77;;;6.20;83.10;;;;;;6231044;28;20246;-83
2023/12/12 10:15:43;;;;;;;8.13;7.30;;;6.20;83.00;;;;;;6221148;28;20266;-85
2023/12/12 10:18:47;;;;;;;8.70;7.40;;;6.20;82.90;;;;;;6233809;28;20397;-80
2023/12/12 10:21:51;;;;;;;7.27;6.67;;;6.20;82.70;;;;;;6255344;28;20245;-81
2023/12/12 10:24:54;;;;;;;7.97;7.17;;;6.10;82.80;;;;;;6240615;28;20239;-83
2023/12/12 10:27:58;;;;;;;10.27;8.27;;;6.20;83.00;;;;;;6238684;28;20330;-84
2023/12/12 10:31:01;;;;;;;9.53;6.97;;;6.20;82.80;;;;;;6239219;28;20250;-78
2023/12/12 10:34:06;;;;;;;7.63;6.83;;;6.20;83.00;;;;;;6247289;28;20247;-80
2023/12/12 10:37:11;;;;;;;7.10;6.50;;;6.20;83.20;;;;;;6238808;28;20236;-80
2023/12/12 10:40:16;;;;;;;6.60;6.20;;;6.20;83.30;;;;;;6239446;28;20299;-79
2023/12/12 10:43:20;;;;;;;6.97;6.27;;;6.10;83.90;;;;;;6240350;28;20508;-80
2023/12/12 10:46:26;;;;;;;6.73;6.23;;;6.10;84.10;;;;;;6230044;28;20358;-79
2023/12/12 10:49:33;;;;;;;7.17;6.47;;;6.10;84.20;;;;;;6240067;28;20257;-83
2023/12/12 10:52:38;;;;;;;7.33;6.73;;;6.00;84.80;;;;;;6231722;28;20243;-84
2023/12/12 10:55:52;;;;;;;7.70;7.00;;;6.10;84.90;;;;;;6260834;28;20840;-83
2023/12/12 10:59:26;;;;;;;6.70;6.10;;;6.10;84.80;;;;;;6219244;28;20700;-79
2023/12/12 11:03:00;;;;;;;13.00;9.80;;;6.20;84.80;;;;;;6240210;28;20278;-84
2023/12/12 11:06:05;;;;;;;8.93;7.93;;;6.30;84.50;;;;;;6236594;28;20242;-80
2023/12/12 11:13:01;;;;;;;9.60;7.93;;;6.30;84.20;;;;;;6226584;28;20278;-81
2023/12/12 11:16:07;;;;;;;9.80;7.80;;;6.20;84.50;;;;;;6244702;28;20334;-81
2023/12/12 11:19:16;;;;;;;11.33;7.87;;;6.20;84.60;;;;;;6222625;28;20576;-82
2023/12/12 11:22:40;;;;;;;9.97;7.10;;;6.30;84.40;;;;;;6224946;28;20247;-82
2023/12/12 11:25:44;;;;;;;8.07;7.40;;;6.30;83.60;;;;;;6235785;28;20257;-80
2023/12/12 16:52:28;;;;;;;13.30;11.70;;;5.20;82.50;;;;;;6305853;27;21062;-79
2023/12/12 16:55:31;;;;;;;12.70;11.10;;;5.10;82.80;;;;;;6283292;28;20237;-80
2023/12/12 16:58:34;;;;;;;14.27;12.63;;;5.10;83.20;;;;;;6290604;28;20228;-80
2023/12/12 17:01:37;;;;;;;16.33;12.13;;;5.20;83.90;;;;;;6315072;28;20242;-78
2023/12/12 17:04:42;;;;;;;15.03;12.37;;;5.30;84.20;;;;;;6314076;28;20256;-80
2023/12/12 17:07:49;;;;;;;14.33;12.83;;;5.30;84.60;;;;;;6305890;28;20232;-79
2023/12/12 17:10:52;;;;;;;13.30;11.40;;;5.30;84.70;;;;;;6296171;28;20236;-79
2023/12/12 17:13:56;;;;;;;13.93;11.83;;;5.40;84.70;;;;;;6298647;28;20243;-79
2023/12/12 17:17:01;;;;;;;12.80;10.80;;;5.40;84.80;;;;;;6306902;28;20241;-82
2023/12/12 17:20:06;;;;;;;14.03;11.60;;;5.50;84.90;;;;;;6317645;28;20232;-79
2023/12/12 17:23:10;;;;;;;12.70;11.20;;;5.50;85.00;;;;;;6325310;28;20264;-82
2023/12/12 17:26:14;;;;;;;15.27;11.90;;;5.50;84.80;;;;;;6314807;28;20225;-79
2023/12/12 17:29:17;;;;;;;14.37;11.87;;;5.50;84.70;;;;;;6314463;28;20228;-77
2023/12/12 17:32:20;;;;;;;15.37;12.57;;;5.50;84.70;;;;;;6300022;28;20236;-78
2023/12/12 17:35:23;;;;;;;14.80;12.10;;;5.50;84.70;;;;;;6301200;28;20775;-81
2023/12/12 17:38:28;;;;;;;12.50;10.93;;;5.50;84.50;;;;;;6306130;28;20310;-80
2023/12/12 17:41:31;;;;;;;12.10;10.80;;;5.50;84.20;;;;;;6301502;28;20319;-80
2023/12/12 17:44:34;;;;;;;11.67;10.40;;;5.50;84.30;;;;;;6306025;28;20716;-82
2023/12/12 17:47:37;;;;;;;15.80;12.37;;;5.50;84.40;;;;;;6300847;28;20385;-80
2023/12/12 17:50:42;;;;;;;14.07;11.77;;;5.60;84.20;;;;;;6306492;28;20263;-80
2023/12/12 17:53:46;;;;;;;13.57;12.13;;;5.60;84.20;;;;;;6306468;28;20314;-79
2023/12/12 17:56:49;;;;;;;14.40;12.20;;;5.60;84.00;;;;;;6306500;28;20241;-81
2023/12/12 17:59:52;;;;;;;13.67;12.37;;;5.50;84.00;;;;;;6304921;28;20315;-81
2023/12/12 18:02:55;;;;;;;14.57;12.60;;;5.50;84.00;;;;;;6282980;28;20233;-80
2023/12/12 18:05:59;;;;;;;16.87;13.63;;;5.60;83.80;;;;;;6263058;28;20238;-80
2023/12/12 18:09:05;;;;;;;13.20;11.97;;;5.50;83.50;;;;;;6279482;28;20237;-79
2023/12/12 18:12:08;;;;;;;12.90;11.60;;;5.50;83.40;;;;;;6279747;28;20246;-81
2023/12/12 18:15:12;;;;;;;14.93;12.30;;;5.50;83.50;;;;;;6283390;28;20292;-79
2023/12/12 18:18:15;;;;;;;14.30;12.70;;;5.50;83.40;;;;;;6281739;28;20233;-80
2023/12/12 18:21:20;;;;;;;14.60;13.07;;;5.50;83.30;;;;;;6277495;28;20238;-80
2023/12/12 18:24:24;;;;;;;15.27;12.43;;;5.40;83.20;;;;;;6280469;28;21471;-81
2023/12/12 18:27:28;;;;;;;20.10;14.00;;;5.40;83.10;;;;;;6287569;28;20233;-80
2023/12/12 18:30:31;;;;;;;17.93;14.67;;;5.30;83.10;;;;;;6279127;28;20238;-80
2023/12/12 18:33:34;;;;;;;16.50;13.30;;;5.30;83.20;;;;;;6288565;28;20244;-78
2023/12/12 18:36:38;;;;;;;14.80;13.40;;;5.30;83.20;;;;;;6282251;28;20273;-82
2023/12/12 18:39:44;;;;;;;14.57;13.17;;;5.30;83.10;;;;;;6300546;28;20232;-81
2023/12/12 18:42:48;;;;;;;14.30;12.80;;;5.20;83.00;;;;;;6276878;28;20268;-79
2023/12/12 18:45:51;;;;;;;14.57;13.17;;;5.10;83.20;;;;;;6286591;28;20780;-81
2023/12/12 18:48:55;;;;;;;13.87;12.37;;;5.00;83.10;;;;;;6287758;28;20237;-79
2023/12/12 18:51:58;;;;;;;14.50;12.20;;;5.00;83.20;;;;;;6285477;28;20241;-80
2023/12/12 18:55:02;;;;;;;15.47;11.80;;;5.00;83.20;;;;;;6274683;28;20289;-80
2023/12/12 18:58:05;;;;;;;12.87;11.77;;;4.90;83.30;;;;;;6285419;28;20230;-80
2023/12/12 19:01:13;;;;;;;12.57;11.50;;;4.90;83.40;;;;;;6278267;28;20233;-79
2023/12/12 19:04:16;;;;;;;11.80;10.67;;;4.80;83.40;;;;;;6286545;28;20281;-81
2023/12/12 19:07:19;;;;;;;14.17;12.37;;;4.80;83.50;;;;;;6292238;28;20618;-80
2023/12/12 19:10:24;;;;;;;15.23;10.83;;;4.80;83.60;;;;;;6276031;28;20248;-81
2023/12/12 19:13:32;;;;;;;13.00;11.57;;;4.80;83.40;;;;;;6281952;28;20769;-80
2023/12/12 19:16:36;;;;;;;11.90;10.83;;;4.70;83.50;;;;;;6280957;28;20311;-80
2023/12/12 19:19:39;;;;;;;13.10;11.30;;;4.70;83.40;;;;;;6294699;28;20359;-79
2023/12/12 19:22:43;;;;;;;14.47;12.50;;;4.70;83.70;;;;;;6291767;28;20238;-78
2023/12/12 19:25:50;;;;;;;16.67;14.97;;;4.60;83.70;;;;;;6283123;28;20316;-82
2023/12/12 19:28:54;;;;;;;15.90;14.30;;;4.50;83.90;;;;;;6283570;28;20251;-78
2023/12/12 19:31:57;;;;;;;14.90;13.50;;;4.50;83.90;;;;;;6286925;28;20241;-82
2023/12/12 19:35:01;;;;;;;14.47;13.03;;;4.50;83.70;;;;;;6281924;28;20240;-80
2023/12/12 19:38:05;;;;;;;13.37;12.07;;;4.50;83.80;;;;;;6279601;28;20300;-79
2023/12/12 19:41:10;;;;;;;12.43;11.20;;;4.50;83.80;;;;;;6285723;28;20229;-78
2023/12/12 19:44:13;;;;;;;12.07;11.07;;;4.50;83.70;;;;;;6281834;28;20234;-79
2023/12/12 19:47:16;;;;;;;12.37;11.10;;;4.40;83.80;;;;;;6290903;28;20716;-80
2023/12/12 19:50:20;;;;;;;11.93;11.03;;;4.40;84.10;;;;;;6277916;28;20827;-80
2023/12/12 19:53:23;;;;;;;11.67;10.63;;;4.30;84.10;;;;;;6282855;28;20272;-81
2023/12/12 19:56:28;;;;;;;12.63;11.53;;;4.30;84.10;;;;;;6280734;28;20407;-79
2023/12/12 19:59:31;;;;;;;12.40;11.20;;;4.20;84.20;;;;;;6277165;28;20229;-78
2023/12/12 20:02:34;;;;;;;12.20;11.13;;;4.20;84.40;;;;;;6277480;28;20241;-81
2023/12/12 20:05:38;;;;;;;13.27;11.17;;;4.30;84.70;;;;;;6279092;28;20743;-82
2023/12/12 20:08:41;;;;;;;14.10;12.80;;;4.30;84.50;;;;;;6284144;28;20257;-79
2023/12/12 20:11:46;;;;;;;14.40;12.90;;;4.30;84.50;;;;;;6280933;28;20245;-78
2023/12/12 20:14:49;;;;;;;13.53;12.33;;;4.30;84.80;;;;;;6282790;28;20244;-79
2023/12/12 20:17:52;;;;;;;16.70;15.00;;;4.30;84.70;;;;;;6280194;28;20697;-80
2023/12/12 20:20:56;;;;;;;20.90;18.03;;;4.30;84.80;;;;;;6262701;28;20304;-81
2023/12/12 20:23:59;;;;;;;20.40;16.77;;;4.30;84.70;;;;;;6264006;28;20866;-80
2023/12/12 20:27:04;;;;;;;17.37;15.67;;;4.30;84.90;;;;;;6287672;28;20232;-81
2023/12/12 20:30:08;;;;;;;17.80;16.17;;;4.30;84.80;;;;;;6277806;28;20606;-81
2023/12/12 20:33:12;;;;;;;16.00;14.07;;;4.30;84.80;;;;;;6279233;28;20706;-79
2023/12/12 20:36:16;;;;;;;15.60;14.07;;;4.20;84.70;;;;;;6284183;28;20318;-82
2023/12/12 20:39:20;;;;;;;15.13;13.63;;;4.20;84.80;;;;;;6283222;28;20244;-81
2023/12/12 20:42:26;;;;;;;15.43;14.00;;;4.10;84.70;;;;;;6281407;28;20865;-81
2023/12/12 20:45:29;;;;;;;16.40;13.90;;;4.10;84.80;;;;;;6277831;28;20241;-80
2023/12/12 20:48:33;;;;;;;16.10;14.50;;;4.10;85.00;;;;;;6284975;28;20885;-81
2023/12/12 20:51:37;;;;;;;14.77;13.33;;;4.10;85.10;;;;;;6282573;28;20240;-80
2023/12/12 20:54:40;;;;;;;15.80;14.30;;;4.10;85.10;;;;;;6289342;28;20541;-79
2023/12/12 20:57:45;;;;;;;13.67;12.33;;;4.10;85.20;;;;;;6281562;28;20278;-78
2023/12/12 21:00:48;;;;;;;14.37;12.90;;;4.20;85.20;;;;;;6277450;28;20303;-79
2023/12/12 21:03:52;;;;;;;14.73;13.23;;;4.20;85.20;;;;;;6273549;28;20237;-81
2023/12/12 21:06:55;;;;;;;14.83;13.43;;;4.20;85.20;;;;;;6278748;28;20944;-81
2023/12/12 21:09:58;;;;;;;15.67;14.10;;;4.20;85.30;;;;;;6285192;28;20440;-79
2023/12/12 21:13:03;;;;;;;14.90;13.40;;;4.20;85.40;;;;;;6277813;28;20258;-79
2023/12/12 21:16:15;;;;;;;13.27;12.00;;;4.20;85.30;;;;;;6261596;28;20249;-81
2023/12/12 21:19:18;;;;;;;15.83;13.70;;;4.20;85.40;;;;;;6274361;28;20240;-78
2023/12/12 21:22:21;;;;;;;15.40;14.00;;;4.30;85.40;;;;;;6278321;28;20245;-78
2023/12/12 21:25:24;;;;;;;15.23;13.93;;;4.20;85.40;;;;;;6273487;28;20851;-81
2023/12/12 21:28:30;;;;;;;17.40;13.33;;;4.20;85.40;;;;;;6286686;28;20248;-81